sensor_id;sensor_type;location;lat;lon;timestamp;P1;durP1;ratioP1;P2;durP2;ratioP2
18503;SDS011;9381;54.244;10.074;2022-10-30T00:04:39;33.90;;;22.97;;
18503;SDS011;9381;54.244;10.074;2022-10-30T00:09:40;49.65;;;26.35;;
18503;SDS011;9381;54.244;10.074;2022-10-30T00:14:40;47.43;;;27.60;;
18503;SDS011;9381;54.244;10.074;2022-10-30T00:19:40;36.50;;;23.90;;
18503;SDS011;9381;54.244;10.074;2022-10-30T00:24:41;40.70;;;25.73;;
18503;SDS011;9381;54.244;10.074;2022-10-30T00:29:41;40.47;;;25.67;;
18503;SDS011;9381;54.244;10.074;2022-10-30T00:34:42;46.50;;;27.43;;
18503;SDS011;9381;54.244;10.074;2022-10-30T00:39:42;38.47;;;24.23;;
18503;SDS011;9381;54.244;10.074;2022-10-30T00:55:05;39.30;;;26.80;;
18503;SDS011;9381;54.244;10.074;2022-10-30T01:00:09;48.07;;;28.47;;
18503;SDS011;9381;54.244;10.074;2022-10-30T01:05:12;42.83;;;26.60;;
18503;SDS011;9381;54.244;10.074;2022-10-30T01:10:16;32.90;;;23.93;;
18503;SDS011;9381;54.244;10.074;2022-10-30T01:15:17;32.97;;;21.27;;
18503;SDS011;9381;54.244;10.074;2022-10-30T01:20:26;36.23;;;23.73;;
18503;SDS011;9381;54.244;10.074;2022-10-30T01:36:37;46.43;;;27.93;;
18503;SDS011;9381;54.244;10.074;2022-10-30T01:41:42;48.03;;;27.13;;
18503;SDS011;9381;54.244;10.074;2022-10-30T01:46:47;44.80;;;27.37;;
18503;SDS011;9381;54.244;10.074;2022-10-30T01:57:22;36.07;;;23.10;;
18503;SDS011;9381;54.244;10.074;2022-10-30T02:02:29;47.97;;;29.23;;
18503;SDS011;9381;54.244;10.074;2022-10-30T02:07:30;45.47;;;30.90;;
18503;SDS011;9381;54.244;10.074;2022-10-30T02:12:30;45.58;;;30.60;;
18503;SDS011;9381;54.244;10.074;2022-10-30T02:17:30;38.23;;;27.33;;
18503;SDS011;9381;54.244;10.074;2022-10-30T02:22:31;43.72;;;27.45;;
18503;SDS011;9381;54.244;10.074;2022-10-30T02:27:31;46.23;;;29.33;;
18503;SDS011;9381;54.244;10.074;2022-10-30T02:32:31;47.53;;;30.40;;
18503;SDS011;9381;54.244;10.074;2022-10-30T02:37:32;47.80;;;29.60;;
18503;SDS011;9381;54.244;10.074;2022-10-30T02:42:34;42.70;;;29.67;;
18503;SDS011;9381;54.244;10.074;2022-10-30T02:47:35;49.03;;;31.17;;
18503;SDS011;9381;54.244;10.074;2022-10-30T02:52:35;44.47;;;30.10;;
18503;SDS011;9381;54.244;10.074;2022-10-30T02:57:35;54.90;;;32.10;;
18503;SDS011;9381;54.244;10.074;2022-10-30T03:02:35;48.63;;;31.40;;
18503;SDS011;9381;54.244;10.074;2022-10-30T03:07:36;50.45;;;31.40;;
18503;SDS011;9381;54.244;10.074;2022-10-30T03:12:36;45.93;;;32.70;;
18503;SDS011;9381;54.244;10.074;2022-10-30T03:17:37;48.57;;;31.97;;
18503;SDS011;9381;54.244;10.074;2022-10-30T03:22:37;47.33;;;31.97;;
18503;SDS011;9381;54.244;10.074;2022-10-30T03:27:37;44.50;;;30.30;;
18503;SDS011;9381;54.244;10.074;2022-10-30T03:32:38;48.15;;;31.27;;
18503;SDS011;9381;54.244;10.074;2022-10-30T03:37:38;50.33;;;32.47;;
18503;SDS011;9381;54.244;10.074;2022-10-30T03:42:39;48.03;;;30.90;;
18503;SDS011;9381;54.244;10.074;2022-10-30T03:47:40;45.97;;;32.47;;
18503;SDS011;9381;54.244;10.074;2022-10-30T03:52:40;53.53;;;33.47;;
18503;SDS011;9381;54.244;10.074;2022-10-30T03:57:40;53.42;;;32.80;;
18503;SDS011;9381;54.244;10.074;2022-10-30T04:02:47;50.00;;;31.60;;
18503;SDS011;9381;54.244;10.074;2022-10-30T04:07:53;53.93;;;32.83;;
18503;SDS011;9381;54.244;10.074;2022-10-30T04:12:59;50.77;;;33.13;;
18503;SDS011;9381;54.244;10.074;2022-10-30T04:18:00;51.17;;;30.60;;
18503;SDS011;9381;54.244;10.074;2022-10-30T04:23:01;48.60;;;31.43;;
18503;SDS011;9381;54.244;10.074;2022-10-30T04:28:04;44.63;;;31.57;;
18503;SDS011;9381;54.244;10.074;2022-10-30T04:33:05;46.23;;;28.97;;
18503;SDS011;9381;54.244;10.074;2022-10-30T04:38:08;40.93;;;28.10;;
18503;SDS011;9381;54.244;10.074;2022-10-30T04:43:10;41.97;;;29.40;;
18503;SDS011;9381;54.244;10.074;2022-10-30T04:48:16;43.33;;;29.87;;
18503;SDS011;9381;54.244;10.074;2022-10-30T04:53:18;43.80;;;29.37;;
18503;SDS011;9381;54.244;10.074;2022-10-30T04:58:20;42.17;;;29.87;;
18503;SDS011;9381;54.244;10.074;2022-10-30T05:03:23;42.63;;;29.47;;
18503;SDS011;9381;54.244;10.074;2022-10-30T05:08:24;45.70;;;31.00;;
18503;SDS011;9381;54.244;10.074;2022-10-30T05:13:24;43.63;;;28.30;;
18503;SDS011;9381;54.244;10.074;2022-10-30T05:18:24;39.87;;;29.20;;
18503;SDS011;9381;54.244;10.074;2022-10-30T05:23:25;38.30;;;27.73;;
18503;SDS011;9381;54.244;10.074;2022-10-30T05:28:25;35.90;;;24.63;;
18503;SDS011;9381;54.244;10.074;2022-10-30T05:33:25;42.30;;;26.27;;
18503;SDS011;9381;54.244;10.074;2022-10-30T05:38:26;32.42;;;24.08;;
18503;SDS011;9381;54.244;10.074;2022-10-30T05:43:26;33.23;;;24.17;;
18503;SDS011;9381;54.244;10.074;2022-10-30T05:48:26;35.13;;;23.77;;
18503;SDS011;9381;54.244;10.074;2022-10-30T05:53:26;34.65;;;23.23;;
18503;SDS011;9381;54.244;10.074;2022-10-30T05:58:27;29.83;;;21.30;;
18503;SDS011;9381;54.244;10.074;2022-10-30T06:03:27;24.80;;;19.00;;
18503;SDS011;9381;54.244;10.074;2022-10-30T06:08:28;20.33;;;16.70;;
18503;SDS011;9381;54.244;10.074;2022-10-30T06:13:28;27.75;;;18.48;;
18503;SDS011;9381;54.244;10.074;2022-10-30T06:18:28;24.67;;;18.27;;
18503;SDS011;9381;54.244;10.074;2022-10-30T06:23:28;29.42;;;18.92;;
18503;SDS011;9381;54.244;10.074;2022-10-30T06:28:29;35.63;;;22.03;;
18503;SDS011;9381;54.244;10.074;2022-10-30T06:33:29;30.27;;;19.02;;
18503;SDS011;9381;54.244;10.074;2022-10-30T06:38:29;22.53;;;17.80;;
18503;SDS011;9381;54.244;10.074;2022-10-30T06:43:30;36.83;;;23.10;;
18503;SDS011;9381;54.244;10.074;2022-10-30T06:48:30;31.90;;;21.47;;
18503;SDS011;9381;54.244;10.074;2022-10-30T06:53:31;32.87;;;20.30;;
18503;SDS011;9381;54.244;10.074;2022-10-30T06:58:31;32.30;;;20.90;;
18503;SDS011;9381;54.244;10.074;2022-10-30T07:03:37;28.73;;;20.43;;
18503;SDS011;9381;54.244;10.074;2022-10-30T07:08:38;23.30;;;18.43;;
18503;SDS011;9381;54.244;10.074;2022-10-30T07:13:38;25.37;;;19.43;;
18503;SDS011;9381;54.244;10.074;2022-10-30T07:18:39;31.27;;;19.73;;
18503;SDS011;9381;54.244;10.074;2022-10-30T07:23:39;25.37;;;18.53;;
18503;SDS011;9381;54.244;10.074;2022-10-30T07:28:39;28.57;;;18.57;;
18503;SDS011;9381;54.244;10.074;2022-10-30T07:33:40;25.20;;;17.50;;
18503;SDS011;9381;54.244;10.074;2022-10-30T07:38:40;35.73;;;21.40;;
18503;SDS011;9381;54.244;10.074;2022-10-30T07:43:41;24.93;;;17.97;;
18503;SDS011;9381;54.244;10.074;2022-10-30T07:48:41;28.13;;;19.70;;
18503;SDS011;9381;54.244;10.074;2022-10-30T07:53:41;24.60;;;18.63;;
18503;SDS011;9381;54.244;10.074;2022-10-30T07:58:41;28.97;;;19.10;;
18503;SDS011;9381;54.244;10.074;2022-10-30T08:03:42;31.50;;;19.25;;
18503;SDS011;9381;54.244;10.074;2022-10-30T08:08:42;31.83;;;19.90;;
18503;SDS011;9381;54.244;10.074;2022-10-30T08:13:43;31.20;;;18.10;;
18503;SDS011;9381;54.244;10.074;2022-10-30T08:18:43;31.70;;;19.57;;
18503;SDS011;9381;54.244;10.074;2022-10-30T08:23:43;25.83;;;19.20;;
18503;SDS011;9381;54.244;10.074;2022-10-30T08:28:44;26.73;;;18.60;;
18503;SDS011;9381;54.244;10.074;2022-10-30T08:33:44;31.20;;;18.85;;
18503;SDS011;9381;54.244;10.074;2022-10-30T08:38:45;29.37;;;17.73;;
18503;SDS011;9381;54.244;10.074;2022-10-30T08:43:45;29.20;;;18.63;;
18503;SDS011;9381;54.244;10.074;2022-10-30T08:48:45;28.63;;;18.63;;
18503;SDS011;9381;54.244;10.074;2022-10-30T08:53:49;30.57;;;17.13;;
18503;SDS011;9381;54.244;10.074;2022-10-30T08:58:49;25.63;;;16.53;;
18503;SDS011;9381;54.244;10.074;2022-10-30T09:03:50;25.47;;;17.90;;
18503;SDS011;9381;54.244;10.074;2022-10-30T09:08:51;26.58;;;17.63;;
18503;SDS011;9381;54.244;10.074;2022-10-30T09:13:51;34.77;;;18.00;;
18503;SDS011;9381;54.244;10.074;2022-10-30T09:18:51;27.17;;;18.20;;
18503;SDS011;9381;54.244;10.074;2022-10-30T09:23:52;27.47;;;18.37;;
18503;SDS011;9381;54.244;10.074;2022-10-30T09:28:52;27.03;;;18.73;;
18503;SDS011;9381;54.244;10.074;2022-10-30T09:33:52;25.10;;;18.27;;
18503;SDS011;9381;54.244;10.074;2022-10-30T09:38:53;24.93;;;16.83;;
18503;SDS011;9381;54.244;10.074;2022-10-30T09:55:02;25.90;;;14.57;;
18503;SDS011;9381;54.244;10.074;2022-10-30T10:00:18;29.50;;;14.07;;
18503;SDS011;9381;54.244;10.074;2022-10-30T10:05:23;23.63;;;13.63;;
18503;SDS011;9381;54.244;10.074;2022-10-30T10:10:38;21.63;;;12.27;;
18503;SDS011;9381;54.244;10.074;2022-10-30T10:15:45;19.83;;;12.13;;
18503;SDS011;9381;54.244;10.074;2022-10-30T10:20:49;14.47;;;11.30;;
18503;SDS011;9381;54.244;10.074;2022-10-30T10:25:54;19.87;;;11.57;;
18503;SDS011;9381;54.244;10.074;2022-10-30T10:31:01;24.90;;;13.50;;
18503;SDS011;9381;54.244;10.074;2022-10-30T10:47:24;25.47;;;12.33;;
18503;SDS011;9381;54.244;10.074;2022-10-30T10:52:46;20.93;;;12.63;;
18503;SDS011;9381;54.244;10.074;2022-10-30T10:57:51;20.00;;;12.27;;
18503;SDS011;9381;54.244;10.074;2022-10-30T11:03:12;21.17;;;12.30;;
18503;SDS011;9381;54.244;10.074;2022-10-30T11:13:29;24.07;;;13.23;;
18503;SDS011;9381;54.244;10.074;2022-10-30T11:18:37;20.73;;;13.63;;
18503;SDS011;9381;54.244;10.074;2022-10-30T11:23:38;26.90;;;14.10;;
18503;SDS011;9381;54.244;10.074;2022-10-30T11:28:41;18.87;;;12.23;;
18503;SDS011;9381;54.244;10.074;2022-10-30T11:33:49;30.37;;;13.77;;
18503;SDS011;9381;54.244;10.074;2022-10-30T11:38:50;27.57;;;13.77;;
18503;SDS011;9381;54.244;10.074;2022-10-30T11:43:56;27.63;;;13.97;;
18503;SDS011;9381;54.244;10.074;2022-10-30T11:48:56;27.57;;;16.47;;
18503;SDS011;9381;54.244;10.074;2022-10-30T11:53:56;31.53;;;16.73;;
18503;SDS011;9381;54.244;10.074;2022-10-30T11:58:57;29.03;;;16.87;;
18503;SDS011;9381;54.244;10.074;2022-10-30T12:04:13;26.43;;;14.93;;
18503;SDS011;9381;54.244;10.074;2022-10-30T12:09:21;30.40;;;15.70;;
18503;SDS011;9381;54.244;10.074;2022-10-30T12:14:22;28.90;;;14.67;;
18503;SDS011;9381;54.244;10.074;2022-10-30T12:19:25;18.67;;;13.57;;
18503;SDS011;9381;54.244;10.074;2022-10-30T12:29:38;26.80;;;15.30;;
18503;SDS011;9381;54.244;10.074;2022-10-30T12:34:48;29.40;;;14.40;;
18503;SDS011;9381;54.244;10.074;2022-10-30T12:40:03;26.70;;;14.53;;
18503;SDS011;9381;54.244;10.074;2022-10-30T12:45:15;23.03;;;13.87;;
18503;SDS011;9381;54.244;10.074;2022-10-30T12:50:24;27.73;;;13.97;;
18503;SDS011;9381;54.244;10.074;2022-10-30T12:55:33;27.50;;;14.47;;
18503;SDS011;9381;54.244;10.074;2022-10-30T13:00:57;23.97;;;13.27;;
18503;SDS011;9381;54.244;10.074;2022-10-30T13:06:04;26.70;;;14.23;;
18503;SDS011;9381;54.244;10.074;2022-10-30T13:11:10;24.87;;;13.53;;
18503;SDS011;9381;54.244;10.074;2022-10-30T13:16:26;23.93;;;14.70;;
18503;SDS011;9381;54.244;10.074;2022-10-30T13:27:01;21.27;;;15.00;;
18503;SDS011;9381;54.244;10.074;2022-10-30T13:37:44;28.97;;;14.90;;
18503;SDS011;9381;54.244;10.074;2022-10-30T13:48:32;25.23;;;15.53;;
18503;SDS011;9381;54.244;10.074;2022-10-30T13:53:48;29.47;;;14.93;;
18503;SDS011;9381;54.244;10.074;2022-10-30T13:59:10;23.30;;;12.87;;
18503;SDS011;9381;54.244;10.074;2022-10-30T14:04:26;21.40;;;12.13;;
18503;SDS011;9381;54.244;10.074;2022-10-30T14:15:03;22.43;;;12.90;;
18503;SDS011;9381;54.244;10.074;2022-10-30T14:25:11;25.27;;;12.87;;
18503;SDS011;9381;54.244;10.074;2022-10-30T14:30:18;17.17;;;10.67;;
18503;SDS011;9381;54.244;10.074;2022-10-30T14:35:30;19.97;;;11.57;;
18503;SDS011;9381;54.244;10.074;2022-10-30T14:45:56;19.57;;;10.97;;
18503;SDS011;9381;54.244;10.074;2022-10-30T14:51:15;20.13;;;11.13;;
18503;SDS011;9381;54.244;10.074;2022-10-30T14:56:26;22.93;;;12.93;;
18503;SDS011;9381;54.244;10.074;2022-10-30T15:07:53;18.87;;;11.10;;
18503;SDS011;9381;54.244;10.074;2022-10-30T15:12:50;17.00;;;10.73;;
18503;SDS011;9381;54.244;10.074;2022-10-30T15:17:55;21.80;;;13.70;;
18503;SDS011;9381;54.244;10.074;2022-10-30T15:23:02;17.53;;;12.27;;
18503;SDS011;9381;54.244;10.074;2022-10-30T15:28:11;23.73;;;13.40;;
18503;SDS011;9381;54.244;10.074;2022-10-30T15:33:17;19.57;;;11.97;;
18503;SDS011;9381;54.244;10.074;2022-10-30T15:38:21;19.63;;;10.97;;
18503;SDS011;9381;54.244;10.074;2022-10-30T15:43:21;18.00;;;10.35;;
18503;SDS011;9381;54.244;10.074;2022-10-30T15:48:34;16.53;;;10.17;;
18503;SDS011;9381;54.244;10.074;2022-10-30T15:59:03;21.97;;;12.83;;
18503;SDS011;9381;54.244;10.074;2022-10-30T16:04:15;27.37;;;14.53;;
18503;SDS011;9381;54.244;10.074;2022-10-30T16:09:17;20.43;;;13.07;;
18503;SDS011;9381;54.244;10.074;2022-10-30T16:14:20;18.87;;;11.60;;
18503;SDS011;9381;54.244;10.074;2022-10-30T16:19:25;16.53;;;11.80;;
18503;SDS011;9381;54.244;10.074;2022-10-30T16:24:29;19.07;;;12.13;;
18503;SDS011;9381;54.244;10.074;2022-10-30T16:29:32;22.00;;;13.67;;
18503;SDS011;9381;54.244;10.074;2022-10-30T16:34:33;20.27;;;12.60;;
18503;SDS011;9381;54.244;10.074;2022-10-30T16:39:36;23.83;;;14.27;;
18503;SDS011;9381;54.244;10.074;2022-10-30T16:44:37;24.23;;;13.07;;
18503;SDS011;9381;54.244;10.074;2022-10-30T16:49:38;17.90;;;11.50;;
18503;SDS011;9381;54.244;10.074;2022-10-30T16:54:59;16.60;;;11.73;;
18503;SDS011;9381;54.244;10.074;2022-10-30T17:00:03;16.40;;;11.80;;
18503;SDS011;9381;54.244;10.074;2022-10-30T17:05:37;15.77;;;11.97;;
18503;SDS011;9381;54.244;10.074;2022-10-30T17:10:42;22.50;;;14.10;;
18503;SDS011;9381;54.244;10.074;2022-10-30T17:15:53;26.17;;;15.83;;
18503;SDS011;9381;54.244;10.074;2022-10-30T17:21:09;19.57;;;13.37;;
18503;SDS011;9381;54.244;10.074;2022-10-30T17:26:11;17.83;;;12.03;;
18503;SDS011;9381;54.244;10.074;2022-10-30T17:36:35;18.53;;;12.97;;
18503;SDS011;9381;54.244;10.074;2022-10-30T17:41:35;19.23;;;12.63;;
18503;SDS011;9381;54.244;10.074;2022-10-30T17:46:37;17.07;;;12.73;;
18503;SDS011;9381;54.244;10.074;2022-10-30T17:51:37;13.90;;;11.93;;
18503;SDS011;9381;54.244;10.074;2022-10-30T17:56:38;20.27;;;14.67;;
18503;SDS011;9381;54.244;10.074;2022-10-30T18:01:38;28.03;;;17.80;;
18503;SDS011;9381;54.244;10.074;2022-10-30T18:06:39;23.83;;;16.93;;
18503;SDS011;9381;54.244;10.074;2022-10-30T18:11:39;22.43;;;13.30;;
18503;SDS011;9381;54.244;10.074;2022-10-30T18:16:39;13.43;;;10.60;;
18503;SDS011;9381;54.244;10.074;2022-10-30T18:21:40;13.73;;;10.30;;
18503;SDS011;9381;54.244;10.074;2022-10-30T18:26:40;18.57;;;10.77;;
18503;SDS011;9381;54.244;10.074;2022-10-30T18:31:40;22.60;;;16.90;;
18503;SDS011;9381;54.244;10.074;2022-10-30T18:36:41;21.10;;;14.90;;
18503;SDS011;9381;54.244;10.074;2022-10-30T18:41:43;20.20;;;15.73;;
18503;SDS011;9381;54.244;10.074;2022-10-30T18:46:45;21.00;;;16.03;;
18503;SDS011;9381;54.244;10.074;2022-10-30T18:51:45;27.30;;;18.10;;
18503;SDS011;9381;54.244;10.074;2022-10-30T18:56:46;26.97;;;18.73;;
18503;SDS011;9381;54.244;10.074;2022-10-30T19:01:46;28.80;;;19.93;;
18503;SDS011;9381;54.244;10.074;2022-10-30T19:06:46;28.90;;;19.23;;
18503;SDS011;9381;54.244;10.074;2022-10-30T19:11:47;26.97;;;18.63;;
18503;SDS011;9381;54.244;10.074;2022-10-30T19:16:47;21.80;;;16.47;;
18503;SDS011;9381;54.244;10.074;2022-10-30T19:21:48;24.87;;;17.93;;
18503;SDS011;9381;54.244;10.074;2022-10-30T19:26:48;16.23;;;13.60;;
18503;SDS011;9381;54.244;10.074;2022-10-30T19:31:49;22.23;;;17.10;;
18503;SDS011;9381;54.244;10.074;2022-10-30T19:36:49;25.07;;;18.90;;
18503;SDS011;9381;54.244;10.074;2022-10-30T19:41:49;22.73;;;16.33;;
18503;SDS011;9381;54.244;10.074;2022-10-30T19:46:50;18.00;;;14.90;;
18503;SDS011;9381;54.244;10.074;2022-10-30T19:51:50;15.97;;;12.83;;
18503;SDS011;9381;54.244;10.074;2022-10-30T19:56:51;12.97;;;11.23;;
18503;SDS011;9381;54.244;10.074;2022-10-30T20:01:51;25.07;;;16.93;;
18503;SDS011;9381;54.244;10.074;2022-10-30T20:06:51;25.30;;;15.90;;
18503;SDS011;9381;54.244;10.074;2022-10-30T20:11:52;19.07;;;12.17;;
18503;SDS011;9381;54.244;10.074;2022-10-30T20:16:52;15.80;;;12.10;;
18503;SDS011;9381;54.244;10.074;2022-10-30T20:21:53;18.90;;;13.93;;
18503;SDS011;9381;54.244;10.074;2022-10-30T20:26:54;13.90;;;11.67;;
18503;SDS011;9381;54.244;10.074;2022-10-30T20:31:56;34.10;;;20.63;;
18503;SDS011;9381;54.244;10.074;2022-10-30T20:36:56;19.95;;;14.77;;
18503;SDS011;9381;54.244;10.074;2022-10-30T20:41:56;23.80;;;16.77;;
18503;SDS011;9381;54.244;10.074;2022-10-30T20:47:04;32.67;;;22.20;;
18503;SDS011;9381;54.244;10.074;2022-10-30T20:52:04;42.37;;;27.07;;
18503;SDS011;9381;54.244;10.074;2022-10-30T20:57:04;28.70;;;21.25;;
18503;SDS011;9381;54.244;10.074;2022-10-30T21:02:05;28.77;;;20.50;;
18503;SDS011;9381;54.244;10.074;2022-10-30T21:07:05;31.63;;;21.23;;
18503;SDS011;9381;54.244;10.074;2022-10-30T21:12:05;46.23;;;30.10;;
18503;SDS011;9381;54.244;10.074;2022-10-30T21:17:06;40.90;;;29.50;;
18503;SDS011;9381;54.244;10.074;2022-10-30T21:22:07;44.63;;;31.80;;
18503;SDS011;9381;54.244;10.074;2022-10-30T21:27:07;47.20;;;31.30;;
18503;SDS011;9381;54.244;10.074;2022-10-30T21:32:08;33.73;;;25.70;;
18503;SDS011;9381;54.244;10.074;2022-10-30T21:37:08;38.50;;;28.10;;
18503;SDS011;9381;54.244;10.074;2022-10-30T21:42:08;23.83;;;18.90;;
18503;SDS011;9381;54.244;10.074;2022-10-30T21:47:09;23.80;;;18.40;;
18503;SDS011;9381;54.244;10.074;2022-10-30T21:52:10;21.97;;;17.20;;
18503;SDS011;9381;54.244;10.074;2022-10-30T21:57:10;22.00;;;17.30;;
18503;SDS011;9381;54.244;10.074;2022-10-30T22:02:12;19.07;;;15.57;;
18503;SDS011;9381;54.244;10.074;2022-10-30T22:07:15;18.00;;;15.57;;
18503;SDS011;9381;54.244;10.074;2022-10-30T22:12:17;19.10;;;16.57;;
18503;SDS011;9381;54.244;10.074;2022-10-30T22:17:17;21.25;;;16.80;;
18503;SDS011;9381;54.244;10.074;2022-10-30T22:22:17;14.70;;;13.18;;
18503;SDS011;9381;54.244;10.074;2022-10-30T22:27:18;12.87;;;11.57;;
18503;SDS011;9381;54.244;10.074;2022-10-30T22:32:18;10.73;;;9.73;;
18503;SDS011;9381;54.244;10.074;2022-10-30T22:37:18;12.07;;;10.97;;
18503;SDS011;9381;54.244;10.074;2022-10-30T22:42:19;12.20;;;11.07;;
18503;SDS011;9381;54.244;10.074;2022-10-30T22:47:19;12.93;;;11.32;;
18503;SDS011;9381;54.244;10.074;2022-10-30T22:52:19;15.00;;;12.10;;
18503;SDS011;9381;54.244;10.074;2022-10-30T22:57:20;16.23;;;13.90;;
18503;SDS011;9381;54.244;10.074;2022-10-30T23:02:20;19.10;;;14.90;;
18503;SDS011;9381;54.244;10.074;2022-10-30T23:07:20;19.57;;;14.63;;
18503;SDS011;9381;54.244;10.074;2022-10-30T23:12:21;15.70;;;13.80;;
18503;SDS011;9381;54.244;10.074;2022-10-30T23:17:21;21.37;;;14.73;;
18503;SDS011;9381;54.244;10.074;2022-10-30T23:22:21;32.37;;;22.30;;
18503;SDS011;9381;54.244;10.074;2022-10-30T23:27:22;21.92;;;16.92;;
18503;SDS011;9381;54.244;10.074;2022-10-30T23:32:22;27.97;;;19.10;;
18503;SDS011;9381;54.244;10.074;2022-10-30T23:37:23;41.10;;;27.43;;
18503;SDS011;9381;54.244;10.074;2022-10-30T23:42:23;47.08;;;29.08;;
18503;SDS011;9381;54.244;10.074;2022-10-30T23:47:23;40.10;;;27.90;;
18503;SDS011;9381;54.244;10.074;2022-10-30T23:52:23;41.37;;;27.60;;
18503;SDS011;9381;54.244;10.074;2022-10-30T23:57:24;36.35;;;26.40;;
